首页
METAR-TAF:

METAR-TAF

机场 :

澤西島,

纬度: 49-13N, 经度: 002-12W, 海拔: 84米

当前天气观测

该预报发布于39分钟前的00:50 UTC
风速13节,风向西转西南
温度 13°C
湿度 77%
气压 1008 hPa
能见度10公里或以上

METAR: EGJJ 170050Z AUTO 24013KT 9999 NCD 13/09 Q1008

时间: 02:29 (01:29 UTC)

预报

该预报发布于2小时和25分钟前的23:04 UTC
预报有效从17日的 00点(UTC)到 17日的 09点(UTC)
风速12节,风向西转西南
能见度10公里或以上
散云层高于2000英尺
几率 30% :
短暂存在
从 17日的 00点(UTC)到 17日的 06点(UTC)
能見度: 8000
多云层高于1500英尺
阵雨
成为
从 17日的 04点(UTC)到 17日的 06点(UTC)
风速13节,风向
短暂存在
从 17日的 06点(UTC)到 17日的 09点(UTC)
风速15节,风向南转西南,有时为25节阵风
能見度: 6000
多云层高于1500英尺
阵雨

TAF: EGJJ 162304Z 1700/1709 25012KT 9999 SCT020 PROB30 TEMPO 1700/1706 8000 SHRA BKN015 BECMG 1704/1706 19013KT TEMPO 1706/1709 20015G25KT 6000 SHRA BKN015

超过4000个机场的气象观测和天气预报(METAR&TAF报告)。

可查询的气象台以黄色和红色小点在地图上表示。

将鼠标移到小点上方,可查看气象台名称。

然后点击查看天气观测和预报。

如需切换地图:点击带黑十字的绿色按钮放大地图;点击带横线的绿色按钮缩小地图;或者点击绿色箭头查看邻近地区的地图。


METAR-TAF: